Hartford, Connecticut
Current Conditions -  °F | °C
As of 5:53 AM on Friday 24 Oct 2014 (Local Time) from KHFD Reporting Station
Overcast Overcast  
Wind Chill: 50°   Ceiling: 3900
Heat Index: 50°   Visibility: 10mi
Dew Point: 43°   Wind: 6mph
Humidity: 77%   Direction: NA
Pressure: 29.74"   Gusts: NA
Location:  41.76°N, 72.67°W
Report Text: KHFD 240953Z VRB05KT 10SM BKN039 OVC049 10/06 A2974 RMK AO2 SLP071 T01000061
Loading
Personal Weather Stations






























Interactive Weather Map
Tropical Storm Tracking
New forecast layout! Learn more

10-Day Weather Forecast

Advertisements
Track Severe Weather on mobile